sensor_id;sensor_type;location;lat;lon;timestamp;temperature;humidity
16505;HTU21D;8365;51.030;4.696;2023-12-20T00:01:40;6.41;118.99
16505;HTU21D;8365;51.030;4.696;2023-12-20T00:04:10;6.36;118.99
16505;HTU21D;8365;51.030;4.696;2023-12-20T00:06:43;6.38;118.99
16505;HTU21D;8365;51.030;4.696;2023-12-20T00:09:14;6.48;118.99
16505;HTU21D;8365;51.030;4.696;2023-12-20T00:11:44;6.49;118.99
16505;HTU21D;8365;51.030;4.696;2023-12-20T00:14:16;6.37;118.99
16505;HTU21D;8365;51.030;4.696;2023-12-20T00:16:49;6.30;118.99
16505;HTU21D;8365;51.030;4.696;2023-12-20T00:19:19;6.33;118.99
16505;HTU21D;8365;51.030;4.696;2023-12-20T00:21:50;6.38;118.99
16505;HTU21D;8365;51.030;4.696;2023-12-20T00:24:20;6.40;118.99
16505;HTU21D;8365;51.030;4.696;2023-12-20T00:26:51;6.34;118.99
16505;HTU21D;8365;51.030;4.696;2023-12-20T00:29:21;6.33;118.99
16505;HTU21D;8365;51.030;4.696;2023-12-20T00:31:52;6.34;118.99
16505;HTU21D;8365;51.030;4.696;2023-12-20T00:34:22;6.33;118.99
16505;HTU21D;8365;51.030;4.696;2023-12-20T00:36:52;6.35;118.99
16505;HTU21D;8365;51.030;4.696;2023-12-20T00:39:23;6.29;118.99
16505;HTU21D;8365;51.030;4.696;2023-12-20T00:41:54;6.12;118.99
16505;HTU21D;8365;51.030;4.696;2023-12-20T00:44:24;6.08;118.99
16505;HTU21D;8365;51.030;4.696;2023-12-20T00:46:55;6.05;118.99
16505;HTU21D;8365;51.030;4.696;2023-12-20T00:49:25;5.92;118.99
16505;HTU21D;8365;51.030;4.696;2023-12-20T00:51:56;5.92;118.99
16505;HTU21D;8365;51.030;4.696;2023-12-20T00:54:26;5.82;118.99
16505;HTU21D;8365;51.030;4.696;2023-12-20T00:56:57;5.78;118.99
16505;HTU21D;8365;51.030;4.696;2023-12-20T00:59:27;5.71;118.99
16505;HTU21D;8365;51.030;4.696;2023-12-20T01:01:58;5.75;118.99
16505;HTU21D;8365;51.030;4.696;2023-12-20T01:04:30;5.65;118.99
16505;HTU21D;8365;51.030;4.696;2023-12-20T01:07:01;5.69;118.99
16505;HTU21D;8365;51.030;4.696;2023-12-20T01:09:32;5.66;118.99
16505;HTU21D;8365;51.030;4.696;2023-12-20T01:12:02;5.61;118.99
16505;HTU21D;8365;51.030;4.696;2023-12-20T01:14:33;5.66;118.99
16505;HTU21D;8365;51.030;4.696;2023-12-20T01:17:04;5.60;118.99
16505;HTU21D;8365;51.030;4.696;2023-12-20T01:19:36;5.63;118.99
16505;HTU21D;8365;51.030;4.696;2023-12-20T01:22:07;5.65;118.99
16505;HTU21D;8365;51.030;4.696;2023-12-20T01:24:37;5.65;118.99
16505;HTU21D;8365;51.030;4.696;2023-12-20T01:27:08;5.63;118.99
16505;HTU21D;8365;51.030;4.696;2023-12-20T01:29:38;5.60;118.99
16505;HTU21D;8365;51.030;4.696;2023-12-20T01:32:09;5.61;118.99
16505;HTU21D;8365;51.030;4.696;2023-12-20T01:34:39;5.60;118.99
16505;HTU21D;8365;51.030;4.696;2023-12-20T01:37:10;5.54;118.99
16505;HTU21D;8365;51.030;4.696;2023-12-20T01:39:40;5.50;118.99
16505;HTU21D;8365;51.030;4.696;2023-12-20T01:42:11;5.53;118.99
16505;HTU21D;8365;51.030;4.696;2023-12-20T01:44:43;5.57;118.99
16505;HTU21D;8365;51.030;4.696;2023-12-20T01:47:14;5.53;118.99
16505;HTU21D;8365;51.030;4.696;2023-12-20T01:49:45;5.54;118.99
16505;HTU21D;8365;51.030;4.696;2023-12-20T01:52:16;5.49;118.99
16505;HTU21D;8365;51.030;4.696;2023-12-20T01:54:47;5.52;118.99
16505;HTU21D;8365;51.030;4.696;2023-12-20T01:57:18;5.55;118.99
16505;HTU21D;8365;51.030;4.696;2023-12-20T01:59:50;5.54;118.99
16505;HTU21D;8365;51.030;4.696;2023-12-20T02:02:20;5.55;118.99
16505;HTU21D;8365;51.030;4.696;2023-12-20T02:04:51;5.50;118.99
16505;HTU21D;8365;51.030;4.696;2023-12-20T02:07:22;5.51;118.99
16505;HTU21D;8365;51.030;4.696;2023-12-20T02:09:53;5.45;118.99
16505;HTU21D;8365;51.030;4.696;2023-12-20T02:12:23;5.46;118.99
16505;HTU21D;8365;51.030;4.696;2023-12-20T02:14:54;5.40;118.99
16505;HTU21D;8365;51.030;4.696;2023-12-20T02:17:27;5.38;118.99
16505;HTU21D;8365;51.030;4.696;2023-12-20T02:19:58;5.41;118.99
16505;HTU21D;8365;51.030;4.696;2023-12-20T02:22:28;5.40;118.99
16505;HTU21D;8365;51.030;4.696;2023-12-20T02:24:59;5.45;118.99
16505;HTU21D;8365;51.030;4.696;2023-12-20T02:27:29;5.43;118.99
16505;HTU21D;8365;51.030;4.696;2023-12-20T02:30:00;5.48;118.99
16505;HTU21D;8365;51.030;4.696;2023-12-20T02:32:31;5.53;118.99
16505;HTU21D;8365;51.030;4.696;2023-12-20T02:35:04;5.69;118.99
16505;HTU21D;8365;51.030;4.696;2023-12-20T02:37:35;5.69;118.99
16505;HTU21D;8365;51.030;4.696;2023-12-20T02:40:08;5.78;118.99
16505;HTU21D;8365;51.030;4.696;2023-12-20T02:42:38;5.85;118.99
16505;HTU21D;8365;51.030;4.696;2023-12-20T02:45:09;5.87;118.99
16505;HTU21D;8365;51.030;4.696;2023-12-20T02:47:42;5.98;118.99
16505;HTU21D;8365;51.030;4.696;2023-12-20T02:50:15;5.96;118.99
16505;HTU21D;8365;51.030;4.696;2023-12-20T02:52:45;5.98;118.99
16505;HTU21D;8365;51.030;4.696;2023-12-20T02:55:16;5.94;118.99
16505;HTU21D;8365;51.030;4.696;2023-12-20T02:57:46;6.00;118.99
16505;HTU21D;8365;51.030;4.696;2023-12-20T03:00:17;5.96;118.99
16505;HTU21D;8365;51.030;4.696;2023-12-20T03:02:48;5.92;118.99
16505;HTU21D;8365;51.030;4.696;2023-12-20T03:05:20;5.96;118.99
16505;HTU21D;8365;51.030;4.696;2023-12-20T03:07:52;5.97;118.99
16505;HTU21D;8365;51.030;4.696;2023-12-20T03:10:22;5.95;118.99
16505;HTU21D;8365;51.030;4.696;2023-12-20T03:12:53;5.95;118.99
16505;HTU21D;8365;51.030;4.696;2023-12-20T03:15:24;5.97;118.99
16505;HTU21D;8365;51.030;4.696;2023-12-20T03:17:54;6.04;118.99
16505;HTU21D;8365;51.030;4.696;2023-12-20T03:20:25;6.09;118.99
16505;HTU21D;8365;51.030;4.696;2023-12-20T03:22:58;6.20;118.99
16505;HTU21D;8365;51.030;4.696;2023-12-20T03:25:28;6.30;118.99
16505;HTU21D;8365;51.030;4.696;2023-12-20T03:28:01;6.31;118.99
16505;HTU21D;8365;51.030;4.696;2023-12-20T03:30:32;6.35;118.99
16505;HTU21D;8365;51.030;4.696;2023-12-20T03:33:02;6.42;118.99
16505;HTU21D;8365;51.030;4.696;2023-12-20T03:35:33;6.40;118.99
16505;HTU21D;8365;51.030;4.696;2023-12-20T03:38:03;6.53;118.99
16505;HTU21D;8365;51.030;4.696;2023-12-20T03:40:34;6.51;118.99
16505;HTU21D;8365;51.030;4.696;2023-12-20T03:43:04;6.46;118.99
16505;HTU21D;8365;51.030;4.696;2023-12-20T03:45:35;6.52;118.99
16505;HTU21D;8365;51.030;4.696;2023-12-20T03:48:07;6.56;118.99
16505;HTU21D;8365;51.030;4.696;2023-12-20T03:50:38;6.40;118.99
16505;HTU21D;8365;51.030;4.696;2023-12-20T03:53:11;6.52;118.99
16505;HTU21D;8365;51.030;4.696;2023-12-20T03:55:41;6.48;118.99
16505;HTU21D;8365;51.030;4.696;2023-12-20T03:58:14;6.43;118.99
16505;HTU21D;8365;51.030;4.696;2023-12-20T04:00:44;6.49;118.99
16505;HTU21D;8365;51.030;4.696;2023-12-20T04:03:15;6.48;118.99
16505;HTU21D;8365;51.030;4.696;2023-12-20T04:05:46;6.51;118.99
16505;HTU21D;8365;51.030;4.696;2023-12-20T04:08:16;6.45;118.99
16505;HTU21D;8365;51.030;4.696;2023-12-20T04:10:47;6.42;118.99
16505;HTU21D;8365;51.030;4.696;2023-12-20T04:13:17;6.39;118.99
16505;HTU21D;8365;51.030;4.696;2023-12-20T04:15:51;6.41;118.99
16505;HTU21D;8365;51.030;4.696;2023-12-20T04:18:22;6.44;118.99
16505;HTU21D;8365;51.030;4.696;2023-12-20T04:20:52;6.39;118.99
16505;HTU21D;8365;51.030;4.696;2023-12-20T04:23:23;6.42;118.99
16505;HTU21D;8365;51.030;4.696;2023-12-20T04:25:54;6.33;118.99
16505;HTU21D;8365;51.030;4.696;2023-12-20T04:28:24;6.26;118.99
16505;HTU21D;8365;51.030;4.696;2023-12-20T04:30:56;6.23;118.99
16505;HTU21D;8365;51.030;4.696;2023-12-20T04:33:26;6.26;118.99
16505;HTU21D;8365;51.030;4.696;2023-12-20T04:35:57;6.22;118.99
16505;HTU21D;8365;51.030;4.696;2023-12-20T04:38:28;6.04;118.99
16505;HTU21D;8365;51.030;4.696;2023-12-20T04:40:58;5.94;118.99
16505;HTU21D;8365;51.030;4.696;2023-12-20T04:43:29;5.92;118.99
16505;HTU21D;8365;51.030;4.696;2023-12-20T04:46:00;5.82;118.99
16505;HTU21D;8365;51.030;4.696;2023-12-20T04:48:30;5.81;118.99
16505;HTU21D;8365;51.030;4.696;2023-12-20T04:51:01;5.82;118.99
16505;HTU21D;8365;51.030;4.696;2023-12-20T04:53:31;5.79;118.99
16505;HTU21D;8365;51.030;4.696;2023-12-20T04:56:02;5.83;118.99
16505;HTU21D;8365;51.030;4.696;2023-12-20T04:58:32;5.81;118.99
16505;HTU21D;8365;51.030;4.696;2023-12-20T05:01:05;5.89;118.99
16505;HTU21D;8365;51.030;4.696;2023-12-20T05:03:35;6.05;118.99
16505;HTU21D;8365;51.030;4.696;2023-12-20T05:06:06;6.11;118.99
16505;HTU21D;8365;51.030;4.696;2023-12-20T05:08:36;6.21;118.99
16505;HTU21D;8365;51.030;4.696;2023-12-20T05:11:07;6.06;118.99
16505;HTU21D;8365;51.030;4.696;2023-12-20T05:13:37;6.01;118.99
16505;HTU21D;8365;51.030;4.696;2023-12-20T05:16:10;5.97;118.99
16505;HTU21D;8365;51.030;4.696;2023-12-20T05:18:41;5.89;118.99
16505;HTU21D;8365;51.030;4.696;2023-12-20T05:21:11;5.80;118.99
16505;HTU21D;8365;51.030;4.696;2023-12-20T05:23:42;5.78;118.99
16505;HTU21D;8365;51.030;4.696;2023-12-20T05:26:12;5.83;118.99
16505;HTU21D;8365;51.030;4.696;2023-12-20T05:28:43;5.77;118.99
16505;HTU21D;8365;51.030;4.696;2023-12-20T05:31:14;5.79;118.99
16505;HTU21D;8365;51.030;4.696;2023-12-20T05:33:47;5.71;118.99
16505;HTU21D;8365;51.030;4.696;2023-12-20T05:36:18;5.68;118.99
16505;HTU21D;8365;51.030;4.696;2023-12-20T05:38:48;5.62;118.99
16505;HTU21D;8365;51.030;4.696;2023-12-20T05:41:19;5.67;118.99
16505;HTU21D;8365;51.030;4.696;2023-12-20T05:43:49;5.75;118.99
16505;HTU21D;8365;51.030;4.696;2023-12-20T05:46:20;5.67;118.99
16505;HTU21D;8365;51.030;4.696;2023-12-20T05:48:51;5.69;118.99
16505;HTU21D;8365;51.030;4.696;2023-12-20T05:51:24;5.65;118.99
16505;HTU21D;8365;51.030;4.696;2023-12-20T05:53:55;5.69;118.99
16505;HTU21D;8365;51.030;4.696;2023-12-20T05:56:25;5.71;118.99
16505;HTU21D;8365;51.030;4.696;2023-12-20T05:58:56;5.68;118.99
16505;HTU21D;8365;51.030;4.696;2023-12-20T06:01:26;5.72;118.99
16505;HTU21D;8365;51.030;4.696;2023-12-20T06:03:57;5.71;118.99
16505;HTU21D;8365;51.030;4.696;2023-12-20T06:06:27;5.68;118.99
16505;HTU21D;8365;51.030;4.696;2023-12-20T06:08:58;5.74;118.99
16505;HTU21D;8365;51.030;4.696;2023-12-20T06:11:29;5.84;118.99
16505;HTU21D;8365;51.030;4.696;2023-12-20T06:13:59;5.90;118.99
16505;HTU21D;8365;51.030;4.696;2023-12-20T06:16:29;5.87;118.99
16505;HTU21D;8365;51.030;4.696;2023-12-20T06:19:00;5.98;118.99
16505;HTU21D;8365;51.030;4.696;2023-12-20T06:21:30;5.98;118.99
16505;HTU21D;8365;51.030;4.696;2023-12-20T06:24:01;5.98;118.99
16505;HTU21D;8365;51.030;4.696;2023-12-20T06:26:31;6.07;118.99
16505;HTU21D;8365;51.030;4.696;2023-12-20T06:29:04;6.19;118.99
16505;HTU21D;8365;51.030;4.696;2023-12-20T06:31:34;6.20;118.99
16505;HTU21D;8365;51.030;4.696;2023-12-20T06:34:05;6.13;118.99
16505;HTU21D;8365;51.030;4.696;2023-12-20T06:36:38;6.12;118.99
16505;HTU21D;8365;51.030;4.696;2023-12-20T06:39:08;6.21;118.99
16505;HTU21D;8365;51.030;4.696;2023-12-20T06:41:39;6.13;118.99
16505;HTU21D;8365;51.030;4.696;2023-12-20T06:44:09;6.09;118.99
16505;HTU21D;8365;51.030;4.696;2023-12-20T06:46:40;6.04;118.99
16505;HTU21D;8365;51.030;4.696;2023-12-20T06:49:10;5.97;118.99
16505;HTU21D;8365;51.030;4.696;2023-12-20T06:51:42;5.90;118.99
16505;HTU21D;8365;51.030;4.696;2023-12-20T06:54:15;5.90;118.99
16505;HTU21D;8365;51.030;4.696;2023-12-20T06:56:45;5.84;118.99
16505;HTU21D;8365;51.030;4.696;2023-12-20T06:59:16;5.84;118.99
16505;HTU21D;8365;51.030;4.696;2023-12-20T07:01:49;5.79;118.99
16505;HTU21D;8365;51.030;4.696;2023-12-20T07:04:20;5.72;118.99
16505;HTU21D;8365;51.030;4.696;2023-12-20T07:06:52;5.68;118.99
16505;HTU21D;8365;51.030;4.696;2023-12-20T07:09:24;5.71;118.99
16505;HTU21D;8365;51.030;4.696;2023-12-20T07:11:56;5.78;118.99
16505;HTU21D;8365;51.030;4.696;2023-12-20T07:14:27;5.79;118.99
16505;HTU21D;8365;51.030;4.696;2023-12-20T07:16:58;5.80;118.99
16505;HTU21D;8365;51.030;4.696;2023-12-20T07:19:28;5.81;118.99
16505;HTU21D;8365;51.030;4.696;2023-12-20T07:21:58;5.79;118.99
16505;HTU21D;8365;51.030;4.696;2023-12-20T07:24:32;5.80;118.99
16505;HTU21D;8365;51.030;4.696;2023-12-20T07:27:02;5.72;118.99
16505;HTU21D;8365;51.030;4.696;2023-12-20T07:29:33;5.79;118.99
16505;HTU21D;8365;51.030;4.696;2023-12-20T07:32:03;5.76;118.99
16505;HTU21D;8365;51.030;4.696;2023-12-20T07:34:34;5.77;118.99
16505;HTU21D;8365;51.030;4.696;2023-12-20T07:37:04;5.80;118.99
16505;HTU21D;8365;51.030;4.696;2023-12-20T07:39:35;5.81;118.99
16505;HTU21D;8365;51.030;4.696;2023-12-20T07:42:07;5.75;118.99
16505;HTU21D;8365;51.030;4.696;2023-12-20T07:44:37;5.72;118.99
16505;HTU21D;8365;51.030;4.696;2023-12-20T07:47:08;5.71;118.99
16505;HTU21D;8365;51.030;4.696;2023-12-20T07:49:38;5.63;118.99
16505;HTU21D;8365;51.030;4.696;2023-12-20T07:52:09;5.70;118.99
16505;HTU21D;8365;51.030;4.696;2023-12-20T07:54:39;5.74;118.99
16505;HTU21D;8365;51.030;4.696;2023-12-20T07:57:11;5.72;118.99
16505;HTU21D;8365;51.030;4.696;2023-12-20T07:59:41;5.74;118.99
16505;HTU21D;8365;51.030;4.696;2023-12-20T08:02:12;5.66;118.99
16505;HTU21D;8365;51.030;4.696;2023-12-20T08:04:42;5.77;118.99
16505;HTU21D;8365;51.030;4.696;2023-12-20T08:07:13;5.81;118.99
16505;HTU21D;8365;51.030;4.696;2023-12-20T08:09:43;5.75;118.99
16505;HTU21D;8365;51.030;4.696;2023-12-20T08:12:14;5.78;118.99
16505;HTU21D;8365;51.030;4.696;2023-12-20T08:14:45;5.87;118.99
16505;HTU21D;8365;51.030;4.696;2023-12-20T08:17:16;5.99;118.99
16505;HTU21D;8365;51.030;4.696;2023-12-20T08:19:48;6.05;118.99
16505;HTU21D;8365;51.030;4.696;2023-12-20T08:22:19;6.14;118.99
16505;HTU21D;8365;51.030;4.696;2023-12-20T08:24:49;6.23;118.99
16505;HTU21D;8365;51.030;4.696;2023-12-20T08:27:20;6.22;118.99
16505;HTU21D;8365;51.030;4.696;2023-12-20T08:29:50;6.12;118.99
16505;HTU21D;8365;51.030;4.696;2023-12-20T08:32:21;6.21;118.99
16505;HTU21D;8365;51.030;4.696;2023-12-20T08:34:54;6.19;118.99
16505;HTU21D;8365;51.030;4.696;2023-12-20T08:37:27;6.23;118.99
16505;HTU21D;8365;51.030;4.696;2023-12-20T08:39:57;6.29;118.99
16505;HTU21D;8365;51.030;4.696;2023-12-20T08:42:27;6.33;118.99
16505;HTU21D;8365;51.030;4.696;2023-12-20T08:45:01;6.25;118.99
16505;HTU21D;8365;51.030;4.696;2023-12-20T08:47:34;6.34;118.99
16505;HTU21D;8365;51.030;4.696;2023-12-20T08:50:07;6.35;118.99
16505;HTU21D;8365;51.030;4.696;2023-12-20T08:52:38;6.49;118.99
16505;HTU21D;8365;51.030;4.696;2023-12-20T08:55:08;6.70;118.99
16505;HTU21D;8365;51.030;4.696;2023-12-20T08:57:40;6.66;118.99
16505;HTU21D;8365;51.030;4.696;2023-12-20T09:00:11;6.67;118.99
16505;HTU21D;8365;51.030;4.696;2023-12-20T09:02:42;6.97;118.99
16505;HTU21D;8365;51.030;4.696;2023-12-20T09:05:14;6.96;118.99
16505;HTU21D;8365;51.030;4.696;2023-12-20T09:07:45;6.88;118.99
16505;HTU21D;8365;51.030;4.696;2023-12-20T09:10:16;6.99;118.99
16505;HTU21D;8365;51.030;4.696;2023-12-20T09:12:46;7.11;118.99
16505;HTU21D;8365;51.030;4.696;2023-12-20T09:15:18;7.17;118.99
16505;HTU21D;8365;51.030;4.696;2023-12-20T09:17:48;7.22;118.99
16505;HTU21D;8365;51.030;4.696;2023-12-20T09:20:19;7.41;118.99
16505;HTU21D;8365;51.030;4.696;2023-12-20T09:22:49;7.65;118.99
16505;HTU21D;8365;51.030;4.696;2023-12-20T09:25:22;7.79;118.99
16505;HTU21D;8365;51.030;4.696;2023-12-20T09:27:53;7.75;118.99
16505;HTU21D;8365;51.030;4.696;2023-12-20T09:30:24;8.04;118.99
16505;HTU21D;8365;51.030;4.696;2023-12-20T09:32:55;8.20;118.99
16505;HTU21D;8365;51.030;4.696;2023-12-20T09:35:25;8.17;118.99
16505;HTU21D;8365;51.030;4.696;2023-12-20T09:37:56;8.44;118.99
16505;HTU21D;8365;51.030;4.696;2023-12-20T09:40:26;8.60;118.99
16505;HTU21D;8365;51.030;4.696;2023-12-20T09:43:03;8.28;118.99
16505;HTU21D;8365;51.030;4.696;2023-12-20T09:45:33;7.85;118.99
16505;HTU21D;8365;51.030;4.696;2023-12-20T09:48:05;8.03;118.99
16505;HTU21D;8365;51.030;4.696;2023-12-20T09:50:36;8.39;118.99
16505;HTU21D;8365;51.030;4.696;2023-12-20T09:53:08;9.17;118.99
16505;HTU21D;8365;51.030;4.696;2023-12-20T09:55:41;9.24;118.99
16505;HTU21D;8365;51.030;4.696;2023-12-20T09:58:12;8.83;118.99
16505;HTU21D;8365;51.030;4.696;2023-12-20T10:00:42;8.35;118.99
16505;HTU21D;8365;51.030;4.696;2023-12-20T10:03:13;8.09;118.99
16505;HTU21D;8365;51.030;4.696;2023-12-20T10:05:47;8.48;118.99
16505;HTU21D;8365;51.030;4.696;2023-12-20T10:08:21;8.80;118.99
16505;HTU21D;8365;51.030;4.696;2023-12-20T10:10:54;8.79;118.99
16505;HTU21D;8365;51.030;4.696;2023-12-20T10:13:25;8.26;118.99
16505;HTU21D;8365;51.030;4.696;2023-12-20T10:15:56;7.93;118.99
16505;HTU21D;8365;51.030;4.696;2023-12-20T10:18:29;8.11;118.99
16505;HTU21D;8365;51.030;4.696;2023-12-20T10:21:00;7.91;118.99
16505;HTU21D;8365;51.030;4.696;2023-12-20T10:23:30;7.78;118.99
16505;HTU21D;8365;51.030;4.696;2023-12-20T10:26:02;7.65;118.99
16505;HTU21D;8365;51.030;4.696;2023-12-20T10:28:37;7.75;118.99
16505;HTU21D;8365;51.030;4.696;2023-12-20T10:31:08;7.89;118.99
16505;HTU21D;8365;51.030;4.696;2023-12-20T10:33:42;7.93;118.99
16505;HTU21D;8365;51.030;4.696;2023-12-20T10:36:14;8.12;118.99
16505;HTU21D;8365;51.030;4.696;2023-12-20T10:38:46;8.39;118.99
16505;HTU21D;8365;51.030;4.696;2023-12-20T10:41:29;8.13;118.99
16505;HTU21D;8365;51.030;4.696;2023-12-20T10:44:03;8.16;118.99
16505;HTU21D;8365;51.030;4.696;2023-12-20T10:46:38;8.13;118.99
16505;HTU21D;8365;51.030;4.696;2023-12-20T10:49:10;8.09;118.99
16505;HTU21D;8365;51.030;4.696;2023-12-20T10:51:41;8.08;118.99
16505;HTU21D;8365;51.030;4.696;2023-12-20T10:54:12;8.03;118.99
16505;HTU21D;8365;51.030;4.696;2023-12-20T10:56:43;7.97;118.99
16505;HTU21D;8365;51.030;4.696;2023-12-20T10:59:15;7.97;118.99
16505;HTU21D;8365;51.030;4.696;2023-12-20T11:01:50;7.98;118.99
16505;HTU21D;8365;51.030;4.696;2023-12-20T11:04:24;7.99;118.99
16505;HTU21D;8365;51.030;4.696;2023-12-20T11:07:00;8.05;118.99
16505;HTU21D;8365;51.030;4.696;2023-12-20T11:09:41;8.03;118.99
16505;HTU21D;8365;51.030;4.696;2023-12-20T11:12:17;7.94;118.99
16505;HTU21D;8365;51.030;4.696;2023-12-20T11:14:53;8.00;118.99
16505;HTU21D;8365;51.030;4.696;2023-12-20T11:17:24;7.98;118.99
16505;HTU21D;8365;51.030;4.696;2023-12-20T11:22:32;7.89;118.99
16505;HTU21D;8365;51.030;4.696;2023-12-20T11:27:35;7.98;118.99
16505;HTU21D;8365;51.030;4.696;2023-12-20T11:30:06;7.86;118.99
16505;HTU21D;8365;51.030;4.696;2023-12-20T11:32:39;7.90;118.99
16505;HTU21D;8365;51.030;4.696;2023-12-20T11:37:41;7.88;118.99
16505;HTU21D;8365;51.030;4.696;2023-12-20T11:40:18;7.87;118.99
16505;HTU21D;8365;51.030;4.696;2023-12-20T11:42:50;7.99;118.99
16505;HTU21D;8365;51.030;4.696;2023-12-20T11:45:23;7.86;118.99
16505;HTU21D;8365;51.030;4.696;2023-12-20T11:47:57;7.82;118.99
16505;HTU21D;8365;51.030;4.696;2023-12-20T11:50:28;7.82;118.99
16505;HTU21D;8365;51.030;4.696;2023-12-20T11:53:02;7.77;118.99
16505;HTU21D;8365;51.030;4.696;2023-12-20T11:55:33;7.74;118.99
16505;HTU21D;8365;51.030;4.696;2023-12-20T11:58:04;7.72;118.99
16505;HTU21D;8365;51.030;4.696;2023-12-20T12:00:35;7.76;118.99
16505;HTU21D;8365;51.030;4.696;2023-12-20T12:03:05;7.75;118.99
16505;HTU21D;8365;51.030;4.696;2023-12-20T12:05:36;7.76;118.99
16505;HTU21D;8365;51.030;4.696;2023-12-20T12:08:06;7.79;118.99
16505;HTU21D;8365;51.030;4.696;2023-12-20T12:10:37;7.79;118.99
16505;HTU21D;8365;51.030;4.696;2023-12-20T12:13:08;7.86;118.99
16505;HTU21D;8365;51.030;4.696;2023-12-20T12:15:39;7.93;118.99
16505;HTU21D;8365;51.030;4.696;2023-12-20T12:18:16;7.94;118.99
16505;HTU21D;8365;51.030;4.696;2023-12-20T12:20:46;7.92;118.99
16505;HTU21D;8365;51.030;4.696;2023-12-20T12:23:23;8.13;118.99
16505;HTU21D;8365;51.030;4.696;2023-12-20T12:25:56;8.09;118.99
16505;HTU21D;8365;51.030;4.696;2023-12-20T12:28:27;8.05;118.99
16505;HTU21D;8365;51.030;4.696;2023-12-20T12:31:02;8.07;118.99
16505;HTU21D;8365;51.030;4.696;2023-12-20T12:33:33;8.00;118.99
16505;HTU21D;8365;51.030;4.696;2023-12-20T12:36:04;8.07;118.99
16505;HTU21D;8365;51.030;4.696;2023-12-20T12:38:37;8.06;118.99
16505;HTU21D;8365;51.030;4.696;2023-12-20T12:41:08;8.18;118.99
16505;HTU21D;8365;51.030;4.696;2023-12-20T12:43:40;8.30;118.99
16505;HTU21D;8365;51.030;4.696;2023-12-20T12:46:10;8.37;118.99
16505;HTU21D;8365;51.030;4.696;2023-12-20T12:48:41;8.39;118.99
16505;HTU21D;8365;51.030;4.696;2023-12-20T12:51:12;8.57;118.99
16505;HTU21D;8365;51.030;4.696;2023-12-20T12:53:43;8.61;118.99
16505;HTU21D;8365;51.030;4.696;2023-12-20T12:56:17;8.58;118.99
16505;HTU21D;8365;51.030;4.696;2023-12-20T12:58:47;8.56;118.99
16505;HTU21D;8365;51.030;4.696;2023-12-20T13:01:18;8.59;118.99
16505;HTU21D;8365;51.030;4.696;2023-12-20T13:03:48;8.60;118.99
16505;HTU21D;8365;51.030;4.696;2023-12-20T13:06:19;8.65;118.99
16505;HTU21D;8365;51.030;4.696;2023-12-20T13:08:50;8.72;118.99
16505;HTU21D;8365;51.030;4.696;2023-12-20T13:11:20;8.61;118.99
16505;HTU21D;8365;51.030;4.696;2023-12-20T13:13:51;8.56;118.99
16505;HTU21D;8365;51.030;4.696;2023-12-20T13:16:24;8.60;118.99
16505;HTU21D;8365;51.030;4.696;2023-12-20T13:18:54;8.65;118.99
16505;HTU21D;8365;51.030;4.696;2023-12-20T13:21:26;8.58;118.99
16505;HTU21D;8365;51.030;4.696;2023-12-20T13:23:56;8.60;118.99
16505;HTU21D;8365;51.030;4.696;2023-12-20T13:26:27;8.61;118.99
16505;HTU21D;8365;51.030;4.696;2023-12-20T13:28:57;8.61;118.99
16505;HTU21D;8365;51.030;4.696;2023-12-20T13:31:28;8.57;118.99
16505;HTU21D;8365;51.030;4.696;2023-12-20T13:33:58;8.52;118.99
16505;HTU21D;8365;51.030;4.696;2023-12-20T13:36:30;8.53;118.99
16505;HTU21D;8365;51.030;4.696;2023-12-20T13:39:01;8.58;118.99
16505;HTU21D;8365;51.030;4.696;2023-12-20T13:41:33;8.63;118.99
16505;HTU21D;8365;51.030;4.696;2023-12-20T13:44:06;8.60;118.99
16505;HTU21D;8365;51.030;4.696;2023-12-20T13:46:36;8.64;118.99
16505;HTU21D;8365;51.030;4.696;2023-12-20T13:49:07;8.62;118.99
16505;HTU21D;8365;51.030;4.696;2023-12-20T13:51:37;8.61;118.99
16505;HTU21D;8365;51.030;4.696;2023-12-20T13:54:08;8.75;118.99
16505;HTU21D;8365;51.030;4.696;2023-12-20T13:56:41;8.81;118.99
16505;HTU21D;8365;51.030;4.696;2023-12-20T13:59:14;8.86;118.99
16505;HTU21D;8365;51.030;4.696;2023-12-20T14:01:45;8.86;118.99
16505;HTU21D;8365;51.030;4.696;2023-12-20T14:04:20;8.91;118.99
16505;HTU21D;8365;51.030;4.696;2023-12-20T14:06:51;8.89;118.99
16505;HTU21D;8365;51.030;4.696;2023-12-20T14:09:22;8.82;118.99
16505;HTU21D;8365;51.030;4.696;2023-12-20T14:11:53;8.85;118.99
16505;HTU21D;8365;51.030;4.696;2023-12-20T14:14:25;8.91;118.99
16505;HTU21D;8365;51.030;4.696;2023-12-20T14:16:55;8.89;118.99
16505;HTU21D;8365;51.030;4.696;2023-12-20T14:19:25;8.96;118.99
16505;HTU21D;8365;51.030;4.696;2023-12-20T14:21:56;8.91;118.99
16505;HTU21D;8365;51.030;4.696;2023-12-20T14:24:31;8.98;118.99
16505;HTU21D;8365;51.030;4.696;2023-12-20T14:27:02;8.98;118.99
16505;HTU21D;8365;51.030;4.696;2023-12-20T14:29:33;9.04;118.99
16505;HTU21D;8365;51.030;4.696;2023-12-20T14:32:04;9.08;118.99
16505;HTU21D;8365;51.030;4.696;2023-12-20T14:34:35;9.10;118.99
16505;HTU21D;8365;51.030;4.696;2023-12-20T14:37:06;9.18;118.99
16505;HTU21D;8365;51.030;4.696;2023-12-20T14:39:39;9.10;118.99
16505;HTU21D;8365;51.030;4.696;2023-12-20T14:42:11;9.12;118.99
16505;HTU21D;8365;51.030;4.696;2023-12-20T14:44:44;9.05;118.99
16505;HTU21D;8365;51.030;4.696;2023-12-20T14:47:14;9.01;118.99
16505;HTU21D;8365;51.030;4.696;2023-12-20T14:49:45;9.03;118.99
16505;HTU21D;8365;51.030;4.696;2023-12-20T14:52:18;9.06;118.99
16505;HTU21D;8365;51.030;4.696;2023-12-20T14:54:49;8.95;118.99
16505;HTU21D;8365;51.030;4.696;2023-12-20T14:57:19;8.98;118.99
16505;HTU21D;8365;51.030;4.696;2023-12-20T14:59:50;9.00;118.99
16505;HTU21D;8365;51.030;4.696;2023-12-20T15:02:20;9.01;118.99
16505;HTU21D;8365;51.030;4.696;2023-12-20T15:04:51;8.94;118.99
16505;HTU21D;8365;51.030;4.696;2023-12-20T15:07:21;8.98;118.99
16505;HTU21D;8365;51.030;4.696;2023-12-20T15:09:52;8.96;118.99
16505;HTU21D;8365;51.030;4.696;2023-12-20T15:12:24;8.94;118.99
16505;HTU21D;8365;51.030;4.696;2023-12-20T15:14:57;8.92;118.99
16505;HTU21D;8365;51.030;4.696;2023-12-20T15:17:27;8.92;118.99
16505;HTU21D;8365;51.030;4.696;2023-12-20T15:19:58;8.94;118.99
16505;HTU21D;8365;51.030;4.696;2023-12-20T15:22:29;8.93;118.99
16505;HTU21D;8365;51.030;4.696;2023-12-20T15:25:00;8.94;118.99
16505;HTU21D;8365;51.030;4.696;2023-12-20T15:27:31;8.93;118.99
16505;HTU21D;8365;51.030;4.696;2023-12-20T15:30:06;9.01;118.99
16505;HTU21D;8365;51.030;4.696;2023-12-20T15:32:38;9.03;118.99
16505;HTU21D;8365;51.030;4.696;2023-12-20T15:35:10;9.01;118.99
16505;HTU21D;8365;51.030;4.696;2023-12-20T15:37:41;9.01;118.99
16505;HTU21D;8365;51.030;4.696;2023-12-20T15:40:14;9.07;118.99
16505;HTU21D;8365;51.030;4.696;2023-12-20T15:42:45;9.07;118.99
16505;HTU21D;8365;51.030;4.696;2023-12-20T15:45:20;9.08;118.99
16505;HTU21D;8365;51.030;4.696;2023-12-20T15:47:51;9.09;118.99
16505;HTU21D;8365;51.030;4.696;2023-12-20T15:50:21;9.07;118.99
16505;HTU21D;8365;51.030;4.696;2023-12-20T15:52:51;9.12;118.99
16505;HTU21D;8365;51.030;4.696;2023-12-20T15:55:24;9.15;118.99
16505;HTU21D;8365;51.030;4.696;2023-12-20T15:57:55;9.15;118.99
16505;HTU21D;8365;51.030;4.696;2023-12-20T16:00:26;9.10;118.99
16505;HTU21D;8365;51.030;4.696;2023-12-20T16:02:56;9.08;118.99